sensor_id;sensor_type;location;lat;lon;timestamp;pressure;altitude;pressure_sealevel;temperature;humidity
71638;BME280;59485;43.542;-5.676;2022-10-17T00:00:32;101326.81;;;18.78;90.71
71638;BME280;59485;43.542;-5.676;2022-10-17T00:02:57;101325.66;;;18.67;90.19
71638;BME280;59485;43.542;-5.676;2022-10-17T00:05:23;101332.28;;;18.66;90.87
71638;BME280;59485;43.542;-5.676;2022-10-17T00:07:50;101339.31;;;18.68;90.99
71638;BME280;59485;43.542;-5.676;2022-10-17T00:10:15;101331.00;;;18.68;91.19
71638;BME280;59485;43.542;-5.676;2022-10-17T00:12:41;101332.69;;;18.69;90.72
71638;BME280;59485;43.542;-5.676;2022-10-17T00:15:07;101331.22;;;18.67;91.15
71638;BME280;59485;43.542;-5.676;2022-10-17T00:17:33;101318.81;;;18.69;91.08
71638;BME280;59485;43.542;-5.676;2022-10-17T00:19:59;101317.69;;;18.70;90.76
71638;BME280;59485;43.542;-5.676;2022-10-17T00:22:26;101312.13;;;18.70;90.68
71638;BME280;59485;43.542;-5.676;2022-10-17T00:24:51;101305.81;;;18.63;91.22
71638;BME280;59485;43.542;-5.676;2022-10-17T00:27:17;101313.31;;;18.63;91.51
71638;BME280;59485;43.542;-5.676;2022-10-17T00:29:47;101331.03;;;18.62;91.32
71638;BME280;59485;43.542;-5.676;2022-10-17T00:32:13;101314.28;;;18.50;91.57
71638;BME280;59485;43.542;-5.676;2022-10-17T00:34:38;101323.41;;;18.57;92.36
71638;BME280;59485;43.542;-5.676;2022-10-17T00:37:04;101322.13;;;18.60;92.09
71638;BME280;59485;43.542;-5.676;2022-10-17T00:39:29;101324.88;;;18.60;92.24
71638;BME280;59485;43.542;-5.676;2022-10-17T00:41:55;101296.81;;;18.43;91.90
71638;BME280;59485;43.542;-5.676;2022-10-17T00:47:01;101321.84;;;18.61;91.95
71638;BME280;59485;43.542;-5.676;2022-10-17T00:49:31;101319.94;;;18.62;91.94
71638;BME280;59485;43.542;-5.676;2022-10-17T00:52:02;101314.00;;;18.58;91.78
71638;BME280;59485;43.542;-5.676;2022-10-17T00:54:33;101310.53;;;18.63;91.36
71638;BME280;59485;43.542;-5.676;2022-10-17T00:57:01;101328.25;;;18.62;91.34
71638;BME280;59485;43.542;-5.676;2022-10-17T00:59:28;101341.28;;;18.61;90.95
71638;BME280;59485;43.542;-5.676;2022-10-17T01:04:32;101321.69;;;18.56;91.18
71638;BME280;59485;43.542;-5.676;2022-10-17T01:06:57;101309.53;;;18.57;91.25
71638;BME280;59485;43.542;-5.676;2022-10-17T01:09:24;101322.13;;;18.60;91.20
71638;BME280;59485;43.542;-5.676;2022-10-17T01:12:06;101312.72;;;18.54;91.09
71638;BME280;59485;43.542;-5.676;2022-10-17T01:26:59;101326.91;;;18.46;91.28
71638;BME280;59485;43.542;-5.676;2022-10-17T01:32:14;101319.94;;;18.37;91.15
71638;BME280;59485;43.542;-5.676;2022-10-17T01:45:21;101341.41;;;18.48;90.01
71638;BME280;59485;43.542;-5.676;2022-10-17T01:47:49;101332.91;;;18.43;90.41
71638;BME280;59485;43.542;-5.676;2022-10-17T01:50:20;101319.72;;;18.38;89.69
71638;BME280;59485;43.542;-5.676;2022-10-17T01:52:54;101331.81;;;18.44;90.11
71638;BME280;59485;43.542;-5.676;2022-10-17T01:55:28;101336.09;;;18.47;89.97
71638;BME280;59485;43.542;-5.676;2022-10-17T01:58:06;101333.53;;;18.45;89.64
71638;BME280;59485;43.542;-5.676;2022-10-17T02:00:34;101331.38;;;18.47;89.39
71638;BME280;59485;43.542;-5.676;2022-10-17T02:03:05;101327.31;;;18.50;89.50
71638;BME280;59485;43.542;-5.676;2022-10-17T02:05:36;101338.41;;;18.50;89.38
71638;BME280;59485;43.542;-5.676;2022-10-17T02:08:03;101324.66;;;18.36;89.86
71638;BME280;59485;43.542;-5.676;2022-10-17T02:10:49;101326.34;;;18.37;89.88
71638;BME280;59485;43.542;-5.676;2022-10-17T02:27:19;101369.06;;;18.36;90.05
71638;BME280;59485;43.542;-5.676;2022-10-17T02:29:57;101345.84;;;18.31;90.85
71638;BME280;59485;43.542;-5.676;2022-10-17T02:32:30;101360.34;;;18.33;91.57
71638;BME280;59485;43.542;-5.676;2022-10-17T02:35:00;101352.13;;;18.20;93.51
71638;BME280;59485;43.542;-5.676;2022-10-17T02:37:28;101339.75;;;18.22;93.60
71638;BME280;59485;43.542;-5.676;2022-10-17T02:39:56;101328.16;;;18.25;93.78
71638;BME280;59485;43.542;-5.676;2022-10-17T02:42:24;101325.38;;;18.25;93.80
71638;BME280;59485;43.542;-5.676;2022-10-17T02:44:52;101328.16;;;18.25;94.35
71638;BME280;59485;43.542;-5.676;2022-10-17T02:49:54;101330.69;;;18.33;94.25
71638;BME280;59485;43.542;-5.676;2022-10-17T02:52:28;101310.63;;;18.31;94.26
71638;BME280;59485;43.542;-5.676;2022-10-17T02:55:45;101309.75;;;18.31;94.24
71638;BME280;59485;43.542;-5.676;2022-10-17T02:57:53;101312.31;;;18.32;93.83
71638;BME280;59485;43.542;-5.676;2022-10-17T03:00:21;101318.94;;;18.31;94.09
71638;BME280;59485;43.542;-5.676;2022-10-17T03:02:52;101312.53;;;18.31;94.17
71638;BME280;59485;43.542;-5.676;2022-10-17T03:05:24;101317.38;;;18.35;94.61
71638;BME280;59485;43.542;-5.676;2022-10-17T03:07:50;101311.84;;;18.35;94.26
71638;BME280;59485;43.542;-5.676;2022-10-17T03:10:16;101315.09;;;18.32;94.53
71638;BME280;59485;43.542;-5.676;2022-10-17T03:12:42;101304.22;;;18.31;93.90
71638;BME280;59485;43.542;-5.676;2022-10-17T03:15:08;101295.03;;;18.30;93.66
71638;BME280;59485;43.542;-5.676;2022-10-17T03:17:34;101288.84;;;18.28;93.66
71638;BME280;59485;43.542;-5.676;2022-10-17T03:19:59;101274.97;;;18.28;93.54
71638;BME280;59485;43.542;-5.676;2022-10-17T03:22:25;101273.50;;;18.26;93.17
71638;BME280;59485;43.542;-5.676;2022-10-17T03:24:50;101289.09;;;18.27;92.29
71638;BME280;59485;43.542;-5.676;2022-10-17T03:27:16;101305.66;;;18.15;92.03
71638;BME280;59485;43.542;-5.676;2022-10-17T03:29:41;101318.44;;;18.16;92.01
71638;BME280;59485;43.542;-5.676;2022-10-17T03:32:07;101313.69;;;18.23;91.54
71638;BME280;59485;43.542;-5.676;2022-10-17T03:34:32;101322.59;;;18.25;91.71
71638;BME280;59485;43.542;-5.676;2022-10-17T03:36:58;101317.53;;;18.22;91.67
71638;BME280;59485;43.542;-5.676;2022-10-17T03:39:23;101314.91;;;18.27;92.02
71638;BME280;59485;43.542;-5.676;2022-10-17T03:41:49;101312.75;;;18.29;92.13
71638;BME280;59485;43.542;-5.676;2022-10-17T03:44:14;101318.38;;;18.23;91.47
71638;BME280;59485;43.542;-5.676;2022-10-17T03:46:40;101332.47;;;18.21;91.45
71638;BME280;59485;43.542;-5.676;2022-10-17T03:49:08;101326.59;;;18.11;91.56
71638;BME280;59485;43.542;-5.676;2022-10-17T03:51:34;101342.31;;;18.17;91.63
71638;BME280;59485;43.542;-5.676;2022-10-17T03:53:59;101346.19;;;18.16;92.32
71638;BME280;59485;43.542;-5.676;2022-10-17T03:56:25;101344.72;;;18.14;92.68
71638;BME280;59485;43.542;-5.676;2022-10-17T03:58:53;101354.06;;;18.19;92.53
71638;BME280;59485;43.542;-5.676;2022-10-17T04:01:19;101355.75;;;18.20;92.55
71638;BME280;59485;43.542;-5.676;2022-10-17T04:03:53;101349.41;;;18.13;92.59
71638;BME280;59485;43.542;-5.676;2022-10-17T04:06:19;101350.50;;;18.12;92.96
71638;BME280;59485;43.542;-5.676;2022-10-17T04:08:45;101343.44;;;18.16;93.20
71638;BME280;59485;43.542;-5.676;2022-10-17T04:11:16;101339.75;;;18.22;93.33
71638;BME280;59485;43.542;-5.676;2022-10-17T04:13:43;101354.47;;;18.23;93.44
71638;BME280;59485;43.542;-5.676;2022-10-17T04:16:11;101344.22;;;18.23;93.92
71638;BME280;59485;43.542;-5.676;2022-10-17T04:18:37;101350.63;;;18.24;94.28
71638;BME280;59485;43.542;-5.676;2022-10-17T04:21:04;101350.84;;;18.22;94.04
71638;BME280;59485;43.542;-5.676;2022-10-17T04:23:30;101324.81;;;18.17;94.40
71638;BME280;59485;43.542;-5.676;2022-10-17T04:25:57;101329.06;;;18.19;94.51
71638;BME280;59485;43.542;-5.676;2022-10-17T04:28:23;101323.59;;;18.13;94.53
71638;BME280;59485;43.542;-5.676;2022-10-17T04:31:00;101322.75;;;18.12;94.94
71638;BME280;59485;43.542;-5.676;2022-10-17T04:33:25;101339.53;;;18.17;94.49
71638;BME280;59485;43.542;-5.676;2022-10-17T04:35:58;101339.38;;;18.12;94.87
71638;BME280;59485;43.542;-5.676;2022-10-17T04:38:25;101344.94;;;18.12;94.78
71638;BME280;59485;43.542;-5.676;2022-10-17T04:40:51;101346.25;;;18.10;94.80
71638;BME280;59485;43.542;-5.676;2022-10-17T04:43:16;101322.06;;;17.92;94.96
71638;BME280;59485;43.542;-5.676;2022-10-17T04:45:42;101338.88;;;17.97;94.82
71638;BME280;59485;43.542;-5.676;2022-10-17T04:48:07;101350.34;;;18.00;95.12
71638;BME280;59485;43.542;-5.676;2022-10-17T04:50:33;101362.09;;;18.03;95.54
71638;BME280;59485;43.542;-5.676;2022-10-17T04:52:58;101332.28;;;17.91;95.73
71638;BME280;59485;43.542;-5.676;2022-10-17T04:55:24;101349.06;;;18.03;95.51
71638;BME280;59485;43.542;-5.676;2022-10-17T04:57:49;101357.03;;;17.93;95.21
71638;BME280;59485;43.542;-5.676;2022-10-17T05:00:15;101344.53;;;17.84;95.21
71638;BME280;59485;43.542;-5.676;2022-10-17T05:02:40;101359.59;;;17.94;94.78
71638;BME280;59485;43.542;-5.676;2022-10-17T05:05:06;101360.94;;;17.85;94.73
71638;BME280;59485;43.542;-5.676;2022-10-17T05:07:32;101370.06;;;17.92;94.54
71638;BME280;59485;43.542;-5.676;2022-10-17T05:09:57;101368.81;;;17.88;95.06
71638;BME280;59485;43.542;-5.676;2022-10-17T05:12:24;101375.59;;;17.92;94.87
71638;BME280;59485;43.542;-5.676;2022-10-17T05:14:52;101371.75;;;17.93;95.00
71638;BME280;59485;43.542;-5.676;2022-10-17T05:17:18;101386.06;;;17.90;95.04
71638;BME280;59485;43.542;-5.676;2022-10-17T05:19:43;101385.22;;;17.90;95.38
71638;BME280;59485;43.542;-5.676;2022-10-17T05:22:08;101403.81;;;17.89;95.37
71638;BME280;59485;43.542;-5.676;2022-10-17T05:24:34;101387.81;;;17.85;95.55
71638;BME280;59485;43.542;-5.676;2022-10-17T05:26:59;101406.53;;;17.96;95.40
71638;BME280;59485;43.542;-5.676;2022-10-17T05:29:25;101402.28;;;17.93;94.76
71638;BME280;59485;43.542;-5.676;2022-10-17T05:31:50;101425.06;;;18.02;94.52
71638;BME280;59485;43.542;-5.676;2022-10-17T05:34:16;101441.06;;;18.00;93.83
71638;BME280;59485;43.542;-5.676;2022-10-17T05:36:44;101445.16;;;17.97;93.93
71638;BME280;59485;43.542;-5.676;2022-10-17T05:39:11;101456.00;;;17.99;93.63
71638;BME280;59485;43.542;-5.676;2022-10-17T05:41:39;101470.78;;;17.93;93.85
71638;BME280;59485;43.542;-5.676;2022-10-17T05:44:04;101497.66;;;17.92;94.61
71638;BME280;59485;43.542;-5.676;2022-10-17T05:46:30;101505.22;;;17.79;96.26
71638;BME280;59485;43.542;-5.676;2022-10-17T05:48:55;101506.53;;;17.63;97.81
71638;BME280;59485;43.542;-5.676;2022-10-17T05:51:21;101509.31;;;17.56;98.86
71638;BME280;59485;43.542;-5.676;2022-10-17T05:53:46;101498.25;;;17.50;100.00
71638;BME280;59485;43.542;-5.676;2022-10-17T05:56:12;101490.34;;;17.47;100.00
71638;BME280;59485;43.542;-5.676;2022-10-17T05:58:40;101496.13;;;17.52;100.00
71638;BME280;59485;43.542;-5.676;2022-10-17T06:01:07;101482.25;;;17.45;100.00
71638;BME280;59485;43.542;-5.676;2022-10-17T06:03:33;101493.13;;;17.47;100.00
71638;BME280;59485;43.542;-5.676;2022-10-17T06:06:04;101485.22;;;17.50;100.00
71638;BME280;59485;43.542;-5.676;2022-10-17T06:08:30;101495.25;;;17.51;100.00
71638;BME280;59485;43.542;-5.676;2022-10-17T06:10:56;101483.56;;;17.43;100.00
71638;BME280;59485;43.542;-5.676;2022-10-17T06:13:21;101506.97;;;17.47;100.00
71638;BME280;59485;43.542;-5.676;2022-10-17T06:15:47;101507.63;;;17.49;100.00
71638;BME280;59485;43.542;-5.676;2022-10-17T06:18:12;101510.41;;;17.49;100.00
71638;BME280;59485;43.542;-5.676;2022-10-17T06:20:38;101516.13;;;17.54;100.00
71638;BME280;59485;43.542;-5.676;2022-10-17T06:23:04;101512.97;;;17.50;100.00
71638;BME280;59485;43.542;-5.676;2022-10-17T06:25:30;101509.53;;;17.48;100.00
71638;BME280;59485;43.542;-5.676;2022-10-17T06:27:56;101506.97;;;17.47;100.00
71638;BME280;59485;43.542;-5.676;2022-10-17T06:30:21;101520.41;;;17.50;100.00
71638;BME280;59485;43.542;-5.676;2022-10-17T06:32:47;101527.47;;;17.52;100.00
71638;BME280;59485;43.542;-5.676;2022-10-17T06:35:13;101532.53;;;17.55;100.00
71638;BME280;59485;43.542;-5.676;2022-10-17T06:37:38;101538.94;;;17.56;100.00
71638;BME280;59485;43.542;-5.676;2022-10-17T06:40:04;101537.03;;;17.56;100.00
71638;BME280;59485;43.542;-5.676;2022-10-17T06:42:32;101532.53;;;17.55;100.00
71638;BME280;59485;43.542;-5.676;2022-10-17T06:44:58;101536.63;;;17.53;100.00
71638;BME280;59485;43.542;-5.676;2022-10-17T06:47:23;101545.56;;;17.61;100.00
71638;BME280;59485;43.542;-5.676;2022-10-17T06:49:49;101544.50;;;17.56;100.00
71638;BME280;59485;43.542;-5.676;2022-10-17T06:52:14;101556.88;;;17.67;100.00
71638;BME280;59485;43.542;-5.676;2022-10-17T06:54:42;101564.13;;;17.68;100.00
71638;BME280;59485;43.542;-5.676;2022-10-17T06:57:08;101557.09;;;17.65;100.00
71638;BME280;59485;43.542;-5.676;2022-10-17T06:59:33;101541.94;;;17.54;100.00
71638;BME280;59485;43.542;-5.676;2022-10-17T07:01:59;101560.28;;;17.69;100.00
71638;BME280;59485;43.542;-5.676;2022-10-17T07:04:25;101561.78;;;17.71;100.00
71638;BME280;59485;43.542;-5.676;2022-10-17T07:06:51;101563.06;;;17.69;100.00
71638;BME280;59485;43.542;-5.676;2022-10-17T07:09:17;101569.25;;;17.71;100.00
71638;BME280;59485;43.542;-5.676;2022-10-17T07:14:08;101567.97;;;17.67;100.00
71638;BME280;59485;43.542;-5.676;2022-10-17T07:16:33;101575.84;;;17.70;100.00
71638;BME280;59485;43.542;-5.676;2022-10-17T07:18:59;101567.09;;;17.59;100.00
71638;BME280;59485;43.542;-5.676;2022-10-17T07:21:24;101581.59;;;17.55;100.00
71638;BME280;59485;43.542;-5.676;2022-10-17T07:23:50;101593.97;;;17.59;100.00
71638;BME280;59485;43.542;-5.676;2022-10-17T07:26:17;101597.84;;;17.51;100.00
71638;BME280;59485;43.542;-5.676;2022-10-17T07:28:44;101609.13;;;17.56;100.00
71638;BME280;59485;43.542;-5.676;2022-10-17T07:31:16;101600.41;;;17.53;100.00
71638;BME280;59485;43.542;-5.676;2022-10-17T07:33:43;101609.75;;;17.58;100.00
71638;BME280;59485;43.542;-5.676;2022-10-17T07:36:08;101619.56;;;17.61;100.00
71638;BME280;59485;43.542;-5.676;2022-10-17T07:38:35;101622.16;;;17.63;100.00
71638;BME280;59485;43.542;-5.676;2022-10-17T07:41:03;101632.59;;;17.67;100.00
71638;BME280;59485;43.542;-5.676;2022-10-17T07:43:29;101632.59;;;17.67;100.00
71638;BME280;59485;43.542;-5.676;2022-10-17T07:45:55;101638.56;;;17.71;100.00
71638;BME280;59485;43.542;-5.676;2022-10-17T07:48:22;101639.44;;;17.71;100.00
71638;BME280;59485;43.542;-5.676;2022-10-17T07:50:48;101647.09;;;17.69;100.00
71638;BME280;59485;43.542;-5.676;2022-10-17T07:53:13;101654.56;;;17.75;100.00
71638;BME280;59485;43.542;-5.676;2022-10-17T07:55:40;101655.84;;;17.79;100.00
71638;BME280;59485;43.542;-5.676;2022-10-17T07:58:07;101669.25;;;17.82;100.00
71638;BME280;59485;43.542;-5.676;2022-10-17T08:00:32;101673.72;;;17.83;100.00
71638;BME280;59485;43.542;-5.676;2022-10-17T08:02:58;101626.63;;;17.63;100.00
71638;BME280;59485;43.542;-5.676;2022-10-17T08:05:23;101664.78;;;17.88;100.00
71638;BME280;59485;43.542;-5.676;2022-10-17T08:07:49;101654.53;;;17.88;100.00
71638;BME280;59485;43.542;-5.676;2022-10-17T08:10:15;101653.22;;;17.91;100.00
71638;BME280;59485;43.542;-5.676;2022-10-17T08:12:41;101646.84;;;17.84;100.00
71638;BME280;59485;43.542;-5.676;2022-10-17T08:15:08;101656.66;;;17.93;100.00
71638;BME280;59485;43.542;-5.676;2022-10-17T08:17:35;101661.78;;;17.89;100.00
71638;BME280;59485;43.542;-5.676;2022-10-17T08:20:02;101667.31;;;17.96;100.00
71638;BME280;59485;43.542;-5.676;2022-10-17T08:22:28;101662.19;;;17.93;100.00
71638;BME280;59485;43.542;-5.676;2022-10-17T08:24:53;101671.78;;;18.04;100.00
71638;BME280;59485;43.542;-5.676;2022-10-17T08:27:18;101669.84;;;18.04;100.00
71638;BME280;59485;43.542;-5.676;2022-10-17T08:29:54;101669.81;;;18.11;100.00
71638;BME280;59485;43.542;-5.676;2022-10-17T08:32:21;101666.41;;;18.09;100.00
71638;BME280;59485;43.542;-5.676;2022-10-17T08:34:47;101671.72;;;18.17;100.00
71638;BME280;59485;43.542;-5.676;2022-10-17T08:37:13;101674.50;;;18.23;100.00
71638;BME280;59485;43.542;-5.676;2022-10-17T08:39:40;101676.19;;;18.24;100.00
71638;BME280;59485;43.542;-5.676;2022-10-17T08:45:20;101678.06;;;18.37;100.00
71638;BME280;59485;43.542;-5.676;2022-10-17T08:47:53;101678.28;;;18.35;100.00
71638;BME280;59485;43.542;-5.676;2022-10-17T08:50:36;101688.69;;;18.47;100.00
71638;BME280;59485;43.542;-5.676;2022-10-17T08:53:40;101698.31;;;18.44;100.00
71638;BME280;59485;43.542;-5.676;2022-10-17T08:56:23;101689.34;;;18.49;100.00
71638;BME280;59485;43.542;-5.676;2022-10-17T08:58:49;101687.59;;;18.54;100.00
71638;BME280;59485;43.542;-5.676;2022-10-17T09:01:41;101683.34;;;18.58;100.00
71638;BME280;59485;43.542;-5.676;2022-10-17T09:06:56;101676.25;;;18.62;100.00
71638;BME280;59485;43.542;-5.676;2022-10-17T09:09:32;101692.22;;;18.73;100.00
71638;BME280;59485;43.542;-5.676;2022-10-17T09:20:41;101698.81;;;18.79;100.00
71638;BME280;59485;43.542;-5.676;2022-10-17T09:23:19;101703.50;;;18.85;100.00
71638;BME280;59485;43.542;-5.676;2022-10-17T09:25:49;101694.91;;;18.93;100.00
71638;BME280;59485;43.542;-5.676;2022-10-17T09:30:54;101700.78;;;19.10;100.00
71638;BME280;59485;43.542;-5.676;2022-10-17T09:33:27;101697.50;;;19.20;100.00
71638;BME280;59485;43.542;-5.676;2022-10-17T09:35:53;101687.75;;;19.10;100.00
71638;BME280;59485;43.542;-5.676;2022-10-17T09:38:22;101691.31;;;19.18;100.00
71638;BME280;59485;43.542;-5.676;2022-10-17T09:40:59;101694.88;;;19.25;100.00
71638;BME280;59485;43.542;-5.676;2022-10-17T09:43:26;101685.19;;;19.34;100.00
71638;BME280;59485;43.542;-5.676;2022-10-17T09:46:08;101700.53;;;19.43;100.00
71638;BME280;59485;43.542;-5.676;2022-10-17T09:48:57;101711.88;;;19.48;100.00
71638;BME280;59485;43.542;-5.676;2022-10-17T09:51:25;101704.75;;;19.52;100.00
71638;BME280;59485;43.542;-5.676;2022-10-17T09:54:00;101717.72;;;19.65;100.00
71638;BME280;59485;43.542;-5.676;2022-10-17T09:56:27;101709.81;;;19.62;100.00
71638;BME280;59485;43.542;-5.676;2022-10-17T09:58:56;101709.78;;;19.68;100.00
71638;BME280;59485;43.542;-5.676;2022-10-17T10:01:28;101707.66;;;19.64;100.00
71638;BME280;59485;43.542;-5.676;2022-10-17T10:06:34;101709.94;;;19.73;100.00
71638;BME280;59485;43.542;-5.676;2022-10-17T10:08:59;101698.19;;;19.71;99.50
71638;BME280;59485;43.542;-5.676;2022-10-17T10:11:54;101709.78;;;19.86;100.00
71638;BME280;59485;43.542;-5.676;2022-10-17T10:14:35;101706.56;;;19.90;100.00
71638;BME280;59485;43.542;-5.676;2022-10-17T10:17:03;101715.09;;;19.95;100.00
71638;BME280;59485;43.542;-5.676;2022-10-17T10:19:34;101693.50;;;19.90;99.71
71638;BME280;59485;43.542;-5.676;2022-10-17T10:22:05;101698.53;;;20.00;99.45
71638;BME280;59485;43.542;-5.676;2022-10-17T10:24:38;101691.72;;;19.96;97.58
71638;BME280;59485;43.542;-5.676;2022-10-17T10:27:03;101696.75;;;20.05;98.81
71638;BME280;59485;43.542;-5.676;2022-10-17T10:29:36;101703.19;;;20.06;97.66
71638;BME280;59485;43.542;-5.676;2022-10-17T10:32:23;101701.66;;;20.10;97.07
71638;BME280;59485;43.542;-5.676;2022-10-17T10:35:18;101700.56;;;20.11;96.38
71638;BME280;59485;43.542;-5.676;2022-10-17T10:37:55;101690.66;;;20.15;98.14
71638;BME280;59485;43.542;-5.676;2022-10-17T10:40:29;101696.22;;;20.15;96.45
71638;BME280;59485;43.542;-5.676;2022-10-17T10:42:57;101694.91;;;20.17;95.94
71638;BME280;59485;43.542;-5.676;2022-10-17T10:45:26;101700.53;;;20.36;97.17
71638;BME280;59485;43.542;-5.676;2022-10-17T10:47:57;101707.56;;;20.38;96.03
71638;BME280;59485;43.542;-5.676;2022-10-17T10:50:39;101682.97;;;20.35;96.76
71638;BME280;59485;43.542;-5.676;2022-10-17T10:55:58;101699.03;;;20.51;96.00
71638;BME280;59485;43.542;-5.676;2022-10-17T10:58:26;101702.22;;;20.55;95.97
71638;BME280;59485;43.542;-5.676;2022-10-17T11:00:56;101702.31;;;20.48;93.52
71638;BME280;59485;43.542;-5.676;2022-10-17T11:03:41;101699.53;;;20.48;95.32
71638;BME280;59485;43.542;-5.676;2022-10-17T11:06:19;101684.94;;;20.28;92.18
71638;BME280;59485;43.542;-5.676;2022-10-17T11:08:50;101697.75;;;20.36;93.93
71638;BME280;59485;43.542;-5.676;2022-10-17T11:11:32;101699.00;;;20.40;95.08
71638;BME280;59485;43.542;-5.676;2022-10-17T11:20:00;101702.72;;;20.09;92.32
71638;BME280;59485;43.542;-5.676;2022-10-17T11:22:30;101704.44;;;20.10;91.67
71638;BME280;59485;43.542;-5.676;2022-10-17T11:25:21;101712.16;;;20.26;94.34
71638;BME280;59485;43.542;-5.676;2022-10-17T11:27:49;101706.84;;;20.24;90.41
71638;BME280;59485;43.542;-5.676;2022-10-17T11:30:15;101705.53;;;20.27;93.87
71638;BME280;59485;43.542;-5.676;2022-10-17T11:33:01;101717.47;;;20.34;90.29
71638;BME280;59485;43.542;-5.676;2022-10-17T11:35:32;101721.63;;;20.43;92.51
71638;BME280;59485;43.542;-5.676;2022-10-17T11:38:20;101721.63;;;20.43;92.16
71638;BME280;59485;43.542;-5.676;2022-10-17T11:40:51;101707.94;;;20.42;90.34
71638;BME280;59485;43.542;-5.676;2022-10-17T11:43:34;101717.22;;;20.54;91.60
71638;BME280;59485;43.542;-5.676;2022-10-17T11:46:06;101708.47;;;20.50;89.92
71638;BME280;59485;43.542;-5.676;2022-10-17T11:51:28;101697.81;;;20.66;92.00
71638;BME280;59485;43.542;-5.676;2022-10-17T12:02:44;101692.06;;;20.60;91.36
71638;BME280;59485;43.542;-5.676;2022-10-17T12:08:12;101693.44;;;20.70;91.59
71638;BME280;59485;43.542;-5.676;2022-10-17T12:21:27;101695.84;;;20.84;95.57
71638;BME280;59485;43.542;-5.676;2022-10-17T12:24:35;101695.44;;;20.81;91.96
71638;BME280;59485;43.542;-5.676;2022-10-17T12:27:30;101688.28;;;20.85;93.92
71638;BME280;59485;43.542;-5.676;2022-10-17T12:30:05;101685.47;;;20.73;89.75
71638;BME280;59485;43.542;-5.676;2022-10-17T12:33:01;101690.03;;;20.68;91.17
71638;BME280;59485;43.542;-5.676;2022-10-17T12:35:28;101697.00;;;20.58;91.31
71638;BME280;59485;43.542;-5.676;2022-10-17T12:45:51;101690.59;;;20.03;92.09
71638;BME280;59485;43.542;-5.676;2022-10-17T12:48:59;101688.34;;;19.94;93.80
71638;BME280;59485;43.542;-5.676;2022-10-17T12:51:25;101692.34;;;19.98;94.54
71638;BME280;59485;43.542;-5.676;2022-10-17T12:54:01;101683.44;;;19.89;93.36
71638;BME280;59485;43.542;-5.676;2022-10-17T12:56:39;101676.56;;;19.73;93.88
71638;BME280;59485;43.542;-5.676;2022-10-17T12:59:10;101691.25;;;19.80;95.41
71638;BME280;59485;43.542;-5.676;2022-10-17T13:01:38;101690.31;;;19.68;94.74
71638;BME280;59485;43.542;-5.676;2022-10-17T13:04:08;101680.22;;;19.49;96.50
71638;BME280;59485;43.542;-5.676;2022-10-17T13:06:38;101706.31;;;19.73;97.53
71638;BME280;59485;43.542;-5.676;2022-10-17T13:09:16;101699.66;;;19.74;97.25
71638;BME280;59485;43.542;-5.676;2022-10-17T13:11:42;101676.66;;;19.60;97.44
71638;BME280;59485;43.542;-5.676;2022-10-17T13:14:13;101694.53;;;19.71;97.07
71638;BME280;59485;43.542;-5.676;2022-10-17T13:16:51;101675.06;;;19.71;97.97
71638;BME280;59485;43.542;-5.676;2022-10-17T13:19:19;101668.44;;;19.72;98.16
71638;BME280;59485;43.542;-5.676;2022-10-17T13:21:58;101677.31;;;19.80;97.48
71638;BME280;59485;43.542;-5.676;2022-10-17T13:24:35;101689.88;;;19.90;98.54
71638;BME280;59485;43.542;-5.676;2022-10-17T13:27:02;101694.13;;;19.92;97.45
71638;BME280;59485;43.542;-5.676;2022-10-17T13:29:29;101692.53;;;20.03;97.70
71638;BME280;59485;43.542;-5.676;2022-10-17T13:32:01;101691.56;;;19.91;95.91
71638;BME280;59485;43.542;-5.676;2022-10-17T13:34:32;101683.94;;;19.86;96.10
71638;BME280;59485;43.542;-5.676;2022-10-17T13:37:00;101686.31;;;19.82;96.15
71638;BME280;59485;43.542;-5.676;2022-10-17T13:39:31;101690.25;;;19.75;96.58
71638;BME280;59485;43.542;-5.676;2022-10-17T13:41:58;101686.31;;;19.82;96.47
71638;BME280;59485;43.542;-5.676;2022-10-17T13:44:26;101689.72;;;19.84;97.23
71638;BME280;59485;43.542;-5.676;2022-10-17T13:46:53;101693.91;;;19.94;96.47
71638;BME280;59485;43.542;-5.676;2022-10-17T13:49:36;101702.69;;;19.91;96.29
71638;BME280;59485;43.542;-5.676;2022-10-17T13:52:05;101695.97;;;19.98;97.42
71638;BME280;59485;43.542;-5.676;2022-10-17T13:54:39;101699.00;;;19.97;95.25
71638;BME280;59485;43.542;-5.676;2022-10-17T13:57:17;101698.84;;;19.92;95.06
71638;BME280;59485;43.542;-5.676;2022-10-17T13:59:44;101692.50;;;19.84;95.56
71638;BME280;59485;43.542;-5.676;2022-10-17T14:02:23;101694.44;;;19.84;96.58
71638;BME280;59485;43.542;-5.676;2022-10-17T14:07:53;101699.00;;;19.97;95.62
71638;BME280;59485;43.542;-5.676;2022-10-17T14:10:25;101690.56;;;19.85;94.33
71638;BME280;59485;43.542;-5.676;2022-10-17T14:12:53;101703.47;;;19.98;94.90
71638;BME280;59485;43.542;-5.676;2022-10-17T14:15:21;101687.63;;;19.98;96.21
71638;BME280;59485;43.542;-5.676;2022-10-17T14:17:54;101679.47;;;20.03;95.04
71638;BME280;59485;43.542;-5.676;2022-10-17T14:20:21;101699.63;;;20.17;94.68
71638;BME280;59485;43.542;-5.676;2022-10-17T14:22:48;101701.66;;;20.28;94.97
71638;BME280;59485;43.542;-5.676;2022-10-17T14:25:37;101705.06;;;20.30;93.92
71638;BME280;59485;43.542;-5.676;2022-10-17T14:30:39;101704.56;;;20.40;94.55
71638;BME280;59485;43.542;-5.676;2022-10-17T14:33:07;101697.66;;;20.42;96.22
71638;BME280;59485;43.542;-5.676;2022-10-17T14:35:36;101706.94;;;20.36;92.44
71638;BME280;59485;43.542;-5.676;2022-10-17T14:38:05;101718.72;;;20.38;94.82
71638;BME280;59485;43.542;-5.676;2022-10-17T14:40:32;101708.44;;;20.32;93.36
71638;BME280;59485;43.542;-5.676;2022-10-17T14:43:04;101721.88;;;20.42;94.50
71638;BME280;59485;43.542;-5.676;2022-10-17T14:45:35;101719.56;;;20.39;95.16
71638;BME280;59485;43.542;-5.676;2022-10-17T14:48:14;101715.06;;;20.38;93.46